Condiciones actuales en los principales Aeropuertos de España-Datos Metar

 

LEAL - Alicante
Actualización: 16/11/2018 04:30
Few Clouds
Few Clouds
 Viento del NO
Viento: NO 4 km/h
Temperatura: 16°C
Rocío: 14°C
Humedad: 88%
Barómetro: 1018 hPa
Nubosidad: Few Clouds
Visibilidad: 10 km
Cloud details: Few Clouds 610 m
2018/11/16 03:30 LEAL 160330Z 31002KT 9999 FEW020 16/14 Q1018 NOSIG
LEAB - Albacete
Actualización: 16/11/2018 04:00
Lluvia débil, Cubierto
Lluvia débil, Cubierto
 Viento del E
Viento: E 7 km/h
Temperatura: 12°C
Rocío: 11°C
Humedad: 94%
Barómetro: 1019 hPa
Resumen: Light Rain
Nubosidad: Cubierto
Visibilidad: 9 km
Cloud details: Few Clouds 640 m
Mostly Cloudy 1067 m
Cubierto 1433 m
2018/11/16 03:00 LEAB 160300Z 08004KT 050V110 9000 -RA FEW021 BKN035 OVC047 12/11 Q1019 NOSIG
LEAM - Almería
Actualización: 16/11/2018 04:30

 Viento del NO
Viento: NO 20 km/h
Temperatura: 15°C
Rocío: 11°C
Humedad: 77%
Barómetro: 1017 hPa
Visibilidad: 10 km
2018/11/16 03:30 LEAM 160330Z AUTO 32011KT 9999 ////// 15/11 Q1017
 
LEAS - Asturias/Aviles
Actualización: 16/11/2018 04:30
Despejado
Despejado
 Viento del SO
Viento: SO 9 km/h
Temperatura: 11°C
Rocío: 9°C
Humedad: 88%
Barómetro: 1017 hPa
Nubosidad: Despejado
Visibilidad: 10 km
2018/11/16 03:30 LEAS 160330Z AUTO 23005KT 9999 NCD 11/09 Q1017
LEBZ - Badajoz/Talavera la Real
Actualización: 15/11/2018 21:00
NO Actualizado
Despejado
Despejado
 Viento del varies
Viento: varies 2 km/h
Temperatura: 14°C
Rocío: 12°C
Humedad: 88%
Barómetro: 1016 hPa
Resumen: Despejado
Visibilidad: greater than 10 km
2018/11/15 20:00 LEBZ 152000Z VRB01KT CAVOK 14/12 Q1016
LEBL - Barcelona
Actualización: 16/11/2018 04:30
Mostly Cloudy
Mostly Cloudy
 Viento del NNO
Viento: NNO 11 km/h
Temperatura: 14°C
Rocío: 13°C
Humedad: 94%
Barómetro: 1020 hPa
Nubosidad: Mostly Cloudy
Visibilidad: 10 km
Cloud details: Few Clouds 610 m
Mostly Cloudy 914 m
2018/11/16 03:30 LEBL 160330Z 34006KT 9999 FEW020 BKN030 14/13 Q1020 NOSIG
 
LEBB - Bilbao
Actualización: 16/11/2018 04:30
Despejado
Despejado
 Viento del SSE
Viento: SSE 9 km/h
Temperatura: 14°C
Rocío: 11°C
Humedad: 82%
Barómetro: 1019 hPa
Nubosidad: Despejado
Visibilidad: 10 km
2018/11/16 03:30 LEBB 160330Z AUTO 15005KT 120V180 9999 NCD 14/11 Q1019
LEBG - Burgos/Villafría
Actualización: 16/11/2018 04:30

 Viento del NNE
Viento: NNE 6 km/h
Visibilidad: 5 km
2018/11/16 03:30 LEBG 160330Z AUTO 02003KT 350V050 5000 2200 BR OVC002/// 10/10 Q1020
LEBA - Córdoba
Actualización: 16/11/2018 04:30
Mostly Cloudy
Mostly Cloudy
 Viento del calm
Viento: Calma
Temperatura: 12°C
Rocío: 11°C
Humedad: 94%
Barómetro: 1017 hPa
Nubosidad: Mostly Cloudy
Visibilidad: 10 km
Cloud details: Mostly Cloudy 1250 m
2018/11/16 03:30 LEBA 160330Z AUTO 00000KT 9999 BKN041 12/11 Q1017
 
LEGE - Gerona
Actualización: 16/11/2018 04:30
Mist, Poco nuboso
Mist, Poco nuboso
 Viento del calm
Viento: Calma
Temperatura: 11°C
Rocío: 11°C
Humedad: 100%
Barómetro: 1021 hPa
Resumen: Mist
Nubosidad: Few Clouds
Visibilidad: 2 km
Cloud details: Few Clouds 244 m
2018/11/16 03:30 LEGE 160330Z 00000KT 2000 BR FEW008 11/11 Q1021
LEGR - Granada
Actualización: 16/11/2018 04:30
Cubierto
Cubierto
 Viento del calm
Viento: Calma
Temperatura: 11°C
Rocío: 11°C
Humedad: 100%
Barómetro: 1018 hPa
Nubosidad: Cubierto
Visibilidad: 10 km
Cloud details: Cubierto 2438 m
2018/11/16 03:30 LEGR 160330Z AUTO 00000KT 9999 OVC080 11/11 Q1018
GCHI - Hierro
Actualización: 16/11/2018 04:30
Few Clouds
Few Clouds
 Viento del NO
Viento: NO 15 km/h
Temperatura: 19°C
Rocío: 12°C
Humedad: 64%
Barómetro: 1015 hPa
Nubosidad: Few Clouds
Visibilidad: 10 km
Cloud details: Few Clouds 1280 m
2018/11/16 03:30 GCHI 160330Z AUTO 32008KT 9999 FEW042 19/12 Q1015
 
LEIB - Ibiza
Actualización: 16/11/2018 04:30
Mostly Cloudy
Mostly Cloudy
 Viento del NE
Viento: NE 19 km/h
Temperatura: 18°C
Rocío: 16°C
Humedad: 88%
Barómetro: 1018 hPa
Nubosidad: Mostly Cloudy
Visibilidad: 10 km
Cloud details: Partly Cloudy 305 m
Mostly Cloudy 457 m
2018/11/16 03:30 LEIB 160330Z 05010KT 020V080 9999 SCT010 BKN015 18/16 Q1018 NOSIG
LEJR - Jerez de la Frontera
Actualización: 16/11/2018 04:30
Partly Cloudy
Partly Cloudy
 Viento del varies
Viento: varies 2 km/h
Temperatura: 11°C
Rocío: 10°C
Humedad: 94%
Barómetro: 1015 hPa
Nubosidad: Partly Cloudy
Visibilidad: 8 km
2018/11/16 03:30 LEJR 160330Z AUTO VRB01KT 8000 NSC 11/10 Q1015
LECO - A Coruña
Actualización: 16/11/2018 04:30
Despejado
Despejado
 Viento del SSE
Viento: SSE 11 km/h
Temperatura: 13°C
Rocío: 10°C
Humedad: 82%
Barómetro: 1016 hPa
Nubosidad: Despejado
Visibilidad: 10 km
2018/11/16 03:30 LECO 160330Z AUTO 15006KT 9999 NCD 13/10 Q1016
 
GCLA - La Palma
Actualización: 16/11/2018 04:30
Despejado
Despejado
 Viento del ONO
Viento: ONO 19 km/h
Temperatura: 17°C
Rocío: 9°C
Humedad: 59%
Barómetro: 1015 hPa
Nubosidad: Despejado
Visibilidad: 10 km
2018/11/16 03:30 GCLA 160330Z AUTO 29010KT 9999 NCD 17/09 Q1015
GCRR - Lanzarote
Actualización: 16/11/2018 04:30
Lluvia débil, Poco nuboso
Lluvia débil, Poco nuboso
 Viento del varies
Viento: varies 4 km/h
Temperatura: 16°C
Rocío: 13°C
Humedad: 83%
Barómetro: 1014 hPa
Resumen: Light Rain
Nubosidad: Few Clouds
Visibilidad: 10 km
Cloud details: Few Clouds 1158 m
2018/11/16 03:30 GCRR 160330Z AUTO VRB02KT 9999 -RA FEW038/// 16/13 Q1014
GCLP - Las Palmas
Actualización: 16/11/2018 04:30
Partly Cloudy
Partly Cloudy
 Viento del NNE
Viento: NNE 9 km/h
Temperatura: 19°C
Rocío: 12°C
Humedad: 64%
Barómetro: 1014 hPa
Nubosidad: Partly Cloudy
Visibilidad: 10 km
Cloud details: Few Clouds 1067 m
Partly Cloudy 1524 m
2018/11/16 03:30 GCLP 160330Z 02005KT 9999 FEW035 SCT050 19/12 Q1014 NOSIG
 
LELN - León
Actualización: 16/11/2018 04:30
Despejado
Despejado
 Viento del N
Viento: N 9 km/h
Temperatura: 8°C
Wind Chill: 6°C
Rocío: 7°C
Humedad: 93%
Barómetro: 1020 hPa
Nubosidad: Despejado
Visibilidad: 10 km
2018/11/16 03:30 LELN 160330Z AUTO 35005KT 9999 NCD 08/07 Q1020
LELO - Logroño
Actualización: 16/11/2018 04:30
Mist, Muy nuboso
Mist, Muy nuboso
 Viento del NE
Viento: NE 7 km/h
Temperatura: 13°C
Rocío: 12°C
Humedad: 94%
Barómetro: 1020 hPa
Resumen: Mist
Nubosidad: Mostly Cloudy
Visibilidad: 5 km
Cloud details: Few Clouds 183 m
Mostly Cloudy 671 m
2018/11/16 03:30 LELO 160330Z AUTO 04004KT 350V100 4700 BR FEW006/// BKN022/// 13/12 Q1020
LECV - Madrid/Colmenar
Actualización: 15/11/2018 19:00
NO Actualizado
Drizzle, Parcialmente nublado
Drizzle, Parcialmente nublado
 Viento del ENE
Viento: ENE 6 km/h
Temperatura: 12°C
Rocío: 10°C
Humedad: 88%
Barómetro: 1019 hPa
Resumen: Drizzle
Nubosidad: Partly Cloudy
Visibilidad: 10 km
Cloud details: Partly Cloudy 914 m
Partly Cloudy 1524 m
2018/11/15 18:00 LECV 151800Z 07003KT 9999 DZ SCT030 SCT050 12/10 Q1019
 
LEMD - Madrid/Barajas
Actualización: 16/11/2018 04:30
Mostly Cloudy
Mostly Cloudy
 Viento del calm
Viento: Calma
Temperatura: 12°C
Rocío: 12°C
Humedad: 100%
Barómetro: 1019 hPa
Nubosidad: Mostly Cloudy
Visibilidad: 7 km
Cloud details: Mostly Cloudy 975 m
2018/11/16 03:30 LEMD 160330Z 00000KT 7000 BKN032 12/12 Q1019 NOSIG
LEVS - Madrid/Cuatro Vientos
Actualización: 15/11/2018 20:00
NO Actualizado
Few Clouds
Few Clouds
 Viento del ENE
Viento: ENE 6 km/h
Temperatura: 14°C
Rocío: 11°C
Humedad: 82%
Barómetro: 1018 hPa
Nubosidad: Few Clouds
Visibilidad: 10 km
Cloud details: Few Clouds 1067 m
2018/11/15 19:00 LEVS 151900Z 06003KT 030V100 9999 FEW035 14/11 Q1018
LEGT - Madrid/Getafe
Actualización: 15/11/2018 22:00
NO Actualizado
Cubierto
Cubierto
 Viento del varies
Viento: varies 4 km/h
Temperatura: 13°C
Rocío: 12°C
Humedad: 94%
Barómetro: 1019 hPa
Nubosidad: Cubierto
Visibilidad: 10 km
Cloud details: Mostly Cloudy 1006 m
Cubierto 1158 m
2018/11/15 21:00 LEGT 152100Z VRB02KT 9999 BKN033 OVC038 13/12 Q1019
 
LETO - Madrid/Torrejón
Actualización: 16/11/2018 04:00
Mostly Cloudy
Mostly Cloudy
 Viento del NNE
Viento: NNE 7 km/h
Temperatura: 12°C
Rocío: 11°C
Humedad: 94%
Barómetro: 1019 hPa
Nubosidad: Mostly Cloudy
Visibilidad: 10 km
Cloud details: Partly Cloudy 1219 m
Mostly Cloudy 1676 m
2018/11/16 03:00 LETO 160300Z 03004KT 9999 SCT040 BKN055 12/11 Q1019 NOSIG
LEMG - Málaga
Actualización: 16/11/2018 04:30
Mostly Cloudy
Mostly Cloudy
 Viento del calm
Viento: Calma
Temperatura: 16°C
Rocío: 15°C
Humedad: 94%
Barómetro: 1017 hPa
Nubosidad: Mostly Cloudy
Visibilidad: 10 km
Cloud details: Few Clouds 457 m
Partly Cloudy 610 m
Mostly Cloudy 1067 m
2018/11/16 03:30 LEMG 160330Z 00000KT 9999 FEW015 SCT020 BKN035 16/15 Q1017 NOSIG
GEML - Melilla
Actualización: 16/11/2018 04:30
Mostly Cloudy
Mostly Cloudy
 Viento del calm
Viento: Calma
Temperatura: 14°C
Rocío: 13°C
Humedad: 94%
Barómetro: 1016 hPa
Nubosidad: Mostly Cloudy
Visibilidad: 10 km
Cloud details: Mostly Cloudy 457 m
2018/11/16 03:30 GEML 160330Z AUTO 00000KT 9999 BKN015/// 14/13 Q1016
 
LEMH - Mahón
Actualización: 16/11/2018 04:30
Despejado
Despejado
 Viento del ENE
Viento: ENE 11 km/h
Temperatura: 16°C
Rocío: 14°C
Humedad: 88%
Barómetro: 1019 hPa
Nubosidad: Despejado
Visibilidad: 10 km
2018/11/16 03:30 LEMH 160330Z AUTO 06006KT 9999 NCD 16/14 Q1019
LEMO - Morón de La Frontera
Actualización: 16/11/2018 04:00
Partly Cloudy
Partly Cloudy
 Viento del varies
Viento: varies 4 km/h
Temperatura: 10°C
Rocío: 9°C
Humedad: 94%
Barómetro: 1015 hPa
Nubosidad: Partly Cloudy
Visibilidad: 6 km
2018/11/16 03:00 LEMO 160300Z VRB02KT 6000 NSC 10/09 Q1015 NOSIG
LERI - Murcia/Alcantarilla
Actualización: 15/11/2018 19:00
NO Actualizado
Few Clouds
Few Clouds
 Viento del O
Viento: O 4 km/h
Temperatura: 15°C
Rocío: 14°C
Humedad: 94%
Barómetro: 1017 hPa
Nubosidad: Few Clouds
Visibilidad: 10 km
Cloud details: Few Clouds 610 m
2018/11/15 18:00 LERI 151800Z 28002KT 9999 FEW020 15/14 Q1017 NOSIG
 
LELC - Murcia/San Javier
Actualización: 16/11/2018 04:30
Cubierto
Cubierto
 Viento del NE
Viento: NE 15 km/h
Temperatura: 18°C
Rocío: 17°C
Humedad: 94%
Barómetro: 1017 hPa
Nubosidad: Cubierto
Visibilidad: 9 km
Cloud details: Cubierto 396 m
2018/11/16 03:30 LELC 160330Z AUTO 05008KT 020V080 9000 OVC013/// 18/17 Q1017
LEPA - Palma de Mallorca
Actualización: 16/11/2018 04:30
Mostly Cloudy
Mostly Cloudy
 Viento del E
Viento: E 6 km/h
Temperatura: 16°C
Rocío: 16°C
Humedad: 100%
Barómetro: 1018 hPa
Nubosidad: Mostly Cloudy
Visibilidad: 10 km
Cloud details: Few Clouds 457 m
Partly Cloudy 762 m
Mostly Cloudy 1219 m
2018/11/16 03:30 LEPA 160330Z 08003KT 9999 FEW015 SCT025 BKN040 16/16 Q1018 NOSIG
LEPP - Pamplona
Actualización: 16/11/2018 04:30
Partly Cloudy
Partly Cloudy
 Viento del calm
Viento: Calma
Temperatura: 9°C
Rocío: 8°C
Humedad: 94%
Barómetro: 1021 hPa
Nubosidad: Partly Cloudy
Visibilidad: 7 km
2018/11/16 03:30 LEPP 160330Z AUTO 00000KT 7000 NSC 09/08 Q1021
 
LERS - Reus
Actualización: 16/11/2018 04:30
Mostly Cloudy
Mostly Cloudy
 Viento del NNE
Viento: NNE 9 km/h
Temperatura: 14°C
Rocío: 13°C
Humedad: 94%
Barómetro: 1020 hPa
Nubosidad: Mostly Cloudy
Visibilidad: 10 km
Cloud details: Partly Cloudy 640 m
Partly Cloudy 792 m
Mostly Cloudy 1036 m
2018/11/16 03:30 LERS 160330Z AUTO 03005KT 9999 SCT021/// SCT026/// BKN034/// 14/13 Q1020
LERT - Rota
Actualización: 16/11/2018 04:00
Despejado
Despejado
 Viento del NE
Viento: NE 7 km/h, Racha: 26 km/h
Temperatura: 13°C
Rocío: 13°C
Humedad: 100%
Barómetro: 1015 hPa
Resumen: Despejado
Visibilidad: greater than 10 km
2018/11/16 03:00 LERT 160300Z 05004G14KT 020V110 CAVOK 13/13 Q1015 NOSIG
LELL - Sabadell
Actualización: 16/11/2018 04:30
Partly Cloudy
Partly Cloudy
 Viento del calm
Viento: Calma
Temperatura: 13°C
Rocío: 12°C
Humedad: 94%
Barómetro: 1021 hPa
Nubosidad: Partly Cloudy
Visibilidad: 7 km
2018/11/16 03:30 LELL 160330Z AUTO 00000KT 7000 NSC 13/12 Q1021
 
LESA - Salamanca
Actualización: 16/11/2018 04:30
Despejado
Despejado
 Viento del E
Viento: E 11 km/h
Temperatura: 9°C
Wind Chill: 7°C
Rocío: 7°C
Humedad: 87%
Barómetro: 1018 hPa
Nubosidad: Despejado
Visibilidad: 9 km
2018/11/16 03:30 LESA 160330Z AUTO 08006KT 9000 NCD 09/07 Q1018
LESO - San Sebastián
Actualización: 16/11/2018 04:30
Despejado
Despejado
 Viento del varies
Viento: varies 4 km/h
Temperatura: 11°C
Rocío: 10°C
Humedad: 94%
Barómetro: 1019 hPa
Nubosidad: Despejado
Visibilidad: 10 km
2018/11/16 03:30 LESO 160330Z AUTO VRB02KT 9999 NCD 11/10 Q1019
LEXJ - Santander
Actualización: 16/11/2018 04:30
Mist, Parcialmente nublado
Mist, Parcialmente nublado
 Viento del S
Viento: S 2 km/h
Temperatura: 9°C
Rocío: 9°C
Humedad: 100%
Barómetro: 1018 hPa
Resumen: Mist
Nubosidad: Partly Cloudy
Visibilidad: 4 km
2018/11/16 03:30 LEXJ 160330Z AUTO 18001KT 4100 BR NSC 09/09 Q1018
 
LEPA - Palma de Mallorca
Actualización: 16/11/2018 04:30
Mostly Cloudy
Mostly Cloudy
 Viento del E
Viento: E 6 km/h
Temperatura: 16°C
Rocío: 16°C
Humedad: 100%
Barómetro: 1018 hPa
Nubosidad: Mostly Cloudy
Visibilidad: 10 km
Cloud details: Few Clouds 457 m
Partly Cloudy 762 m
Mostly Cloudy 1219 m
2018/11/16 03:30 LEPA 160330Z 08003KT 9999 FEW015 SCT025 BKN040 16/16 Q1018 NOSIG
LEPP - Pamplona
Actualización: 16/11/2018 04:30
Partly Cloudy
Partly Cloudy
 Viento del calm
Viento: Calma
Temperatura: 9°C
Rocío: 8°C
Humedad: 94%
Barómetro: 1021 hPa
Nubosidad: Partly Cloudy
Visibilidad: 7 km
2018/11/16 03:30 LEPP 160330Z AUTO 00000KT 7000 NSC 09/08 Q1021
LEST - Santiago de Compostela
Actualización: 16/11/2018 04:30
Despejado
Despejado
 Viento del SE
Viento: SE 11 km/h
Temperatura: 12°C
Rocío: 9°C
Humedad: 82%
Barómetro: 1017 hPa
Resumen: Despejado
Visibilidad: greater than 10 km
2018/11/16 03:30 LEST 160330Z 14006KT CAVOK 12/09 Q1017 NOSIG
 
LEZL - Sevilla
Actualización: 16/11/2018 04:30
Despejado
Despejado
 Viento del ENE
Viento: ENE 11 km/h
Temperatura: 14°C
Rocío: 13°C
Humedad: 94%
Barómetro: 1015 hPa
Resumen: Despejado
Visibilidad: greater than 10 km
2018/11/16 03:30 LEZL 160330Z 07006KT CAVOK 14/13 Q1015 NOSIG
GCXO - Tenerife
Actualización: 16/11/2018 04:30
Mostly Cloudy
Mostly Cloudy
 Viento del O
Viento: O 20 km/h
Temperatura: 12°C
Rocío: 9°C
Humedad: 82%
Barómetro: 1016 hPa
Nubosidad: Mostly Cloudy
Visibilidad: 10 km
Cloud details: Mostly Cloudy 792 m
2018/11/16 03:30 GCXO 160330Z AUTO 28011KT 9999 BKN026/// 12/09 Q1016
GCTS - Tenerife-Sur
Actualización: 16/11/2018 04:00
Mostly Cloudy
Mostly Cloudy
 Viento del NNE
Viento: NNE 7 km/h
Temperatura: 18°C
Rocío: 13°C
Humedad: 73%
Barómetro: 1015 hPa
Nubosidad: Mostly Cloudy
Visibilidad: 10 km
Cloud details: Partly Cloudy 914 m
Mostly Cloudy 1219 m
2018/11/16 03:00 GCTS 160300Z 02004KT 340V050 9999 SCT030 BKN040 18/13 Q1015 NOSIG
 
LEVC - Valencia
Actualización: 16/11/2018 04:30
Mostly Cloudy
Mostly Cloudy
 Viento del NO
Viento: NO 9 km/h
Temperatura: 15°C
Rocío: 15°C
Humedad: 100%
Barómetro: 1019 hPa
Nubosidad: Mostly Cloudy
Visibilidad: 10 km
Cloud details: Few Clouds 457 m
Few Clouds 762 m
Mostly Cloudy 1372 m
2018/11/16 03:30 LEVC 160330Z 31005KT 9999 FEW015 FEW025CB BKN045 15/15 Q1019 TEMPO 4000 TSRA
LEVD - Valladolid
Actualización: 15/11/2018 21:30
NO Actualizado
Despejado
Despejado
 Viento del E
Viento: E 11 km/h
Temperatura: 10°C
Wind Chill: 8°C
Rocío: 8°C
Humedad: 88%
Barómetro: 1019 hPa
Resumen: Despejado
Visibilidad: greater than 10 km
2018/11/15 20:30 LEVD 152030Z 08006KT CAVOK 10/08 Q1019
LEVX - Vigo
Actualización: 16/11/2018 04:30
Despejado
Despejado
 Viento del SO
Viento: SO 7 km/h
Temperatura: 13°C
Rocío: 10°C
Humedad: 82%
Barómetro: 1016 hPa
Resumen: Despejado
Visibilidad: greater than 10 km
2018/11/16 03:30 LEVX 160330Z 23004KT 200V270 CAVOK 13/10 Q1016 BECMG
 
LEVT - Vitoria
Actualización: 16/11/2018 04:30
Patches of fog, Poco nuboso
Patches of fog, Poco nuboso
 Viento del varies
Viento: varies 2 km/h
Temperatura: 6°C
Rocío: 6°C
Humedad: 100%
Barómetro: 1020 hPa
Resumen: Patches of Fog
Nubosidad: Few Clouds
Visibilidad: 7 km
Cloud details: Few Clouds 30 m
2018/11/16 03:30 LEVT 160330Z VRB01KT 7000 2000S BCFG FEW001 06/06 Q1020
LEZG - Zaragoza
Actualización: 16/11/2018 04:30
Partly Cloudy
Partly Cloudy
 Viento del varies
Viento: varies 2 km/h
Temperatura: 12°C
Rocío: 11°C
Humedad: 94%
Barómetro: 1021 hPa
Nubosidad: Partly Cloudy
Visibilidad: 10 km
Cloud details: Few Clouds 183 m
Partly Cloudy 671 m
2018/11/16 03:30 LEZG 160330Z VRB01KT 9999 FEW006 SCT022 12/11 Q1021

La estación de MeteoMurcia.com, publica sus datos en los siguientes proyectos:

Meteoclimatic www.awekas.at

W3Counter
Web Analytics